createdAt,value
2018-07-24T00:02:16.301Z,21.40
2018-07-24T00:04:45.097Z,21.40
2018-07-24T00:09:42.533Z,21.30
2018-07-24T00:12:11.310Z,21.30
2018-07-24T00:14:40.211Z,21.30
2018-07-24T00:17:09.013Z,21.20
2018-07-24T00:19:37.797Z,21.20
2018-07-24T00:22:06.821Z,21.20
2018-07-24T00:24:35.705Z,21.20
2018-07-24T00:27:04.457Z,21.20
2018-07-24T00:29:33.237Z,21.20
2018-07-24T00:32:02.024Z,21.20
2018-07-24T00:34:30.762Z,21.20
2018-07-24T00:36:59.499Z,21.20
2018-07-24T00:39:28.300Z,21.10
2018-07-24T00:41:57.108Z,21.10
2018-07-24T00:47:23.245Z,21.00
2018-07-24T00:49:52.074Z,21.00
2018-07-24T00:52:20.901Z,20.90
2018-07-24T00:54:49.961Z,20.90
2018-07-24T00:57:18.731Z,20.90
2018-07-24T01:02:15.955Z,20.90
2018-07-24T01:04:44.844Z,20.80
2018-07-24T01:09:42.085Z,20.80
2018-07-24T01:12:10.847Z,20.80
2018-07-24T01:14:39.647Z,20.80
2018-07-24T01:17:08.432Z,20.70
2018-07-24T01:19:37.705Z,20.70
2018-07-24T01:22:06.507Z,20.70
2018-07-24T01:24:36.890Z,20.70
2018-07-24T01:27:05.656Z,20.70
2018-07-24T01:29:34.516Z,20.60
2018-07-24T01:32:03.293Z,20.60
2018-07-24T01:34:32.097Z,20.50
2018-07-24T01:37:00.999Z,20.50
2018-07-24T01:39:29.813Z,20.50
2018-07-24T01:41:58.636Z,20.50
2018-07-24T01:44:27.424Z,20.50
2018-07-24T01:46:56.201Z,20.40
2018-07-24T01:49:25.013Z,20.40
2018-07-24T01:51:53.825Z,20.40
2018-07-24T01:54:22.741Z,20.40
2018-07-24T01:56:52.109Z,20.40
2018-07-24T01:59:21.315Z,20.30
2018-07-24T02:01:50.425Z,20.40
2018-07-24T02:04:19.285Z,20.40
2018-07-24T02:06:48.109Z,20.40
2018-07-24T02:11:45.417Z,20.40
2018-07-24T02:14:14.350Z,20.40
2018-07-24T02:16:43.412Z,20.40
2018-07-24T02:19:12.201Z,20.30
2018-07-24T02:21:41.348Z,20.20
2018-07-24T02:24:10.189Z,20.20
2018-07-24T02:26:39.091Z,20.20
2018-07-24T02:29:08.113Z,20.20
2018-07-24T02:31:37.169Z,20.20
2018-07-24T02:34:06.534Z,20.10
2018-07-24T02:39:06.424Z,20.10
2018-07-24T02:41:35.262Z,20.00
2018-07-24T02:44:04.046Z,20.00
2018-07-24T02:51:30.209Z,20.00
2018-07-24T02:53:59.333Z,20.00
2018-07-24T03:01:26.260Z,20.00
2018-07-24T03:03:55.185Z,19.90
2018-07-24T03:06:24.206Z,19.90
2018-07-24T03:08:53.017Z,19.90
2018-07-24T03:11:21.834Z,19.90
2018-07-24T03:13:50.589Z,19.90
2018-07-24T03:16:19.713Z,19.90
2018-07-24T03:21:16.970Z,19.90
2018-07-24T03:23:45.754Z,19.90
2018-07-24T03:26:14.551Z,19.80
2018-07-24T03:28:43.337Z,19.80
2018-07-24T03:31:12.121Z,19.80
2018-07-24T03:33:40.909Z,19.80
2018-07-24T03:36:09.694Z,19.80
2018-07-24T03:38:38.565Z,19.80
2018-07-24T03:41:07.375Z,19.80
2018-07-24T03:43:36.181Z,19.80
2018-07-24T03:46:05.177Z,19.80
2018-07-24T03:48:33.948Z,19.80
2018-07-24T03:51:02.755Z,19.80
2018-07-24T03:53:31.540Z,19.80
2018-07-24T03:56:00.334Z,19.80
2018-07-24T03:58:29.107Z,19.80
2018-07-24T04:00:58.093Z,19.80
2018-07-24T04:03:26.902Z,19.80
2018-07-24T04:05:55.765Z,19.80
2018-07-24T04:08:24.544Z,19.80
2018-07-24T04:10:53.372Z,19.90
2018-07-24T04:13:22.361Z,19.80
2018-07-24T04:15:51.220Z,19.90
2018-07-24T04:18:20.001Z,19.90
2018-07-24T04:20:49.002Z,20.00
2018-07-24T04:23:17.788Z,20.00
2018-07-24T04:25:46.573Z,20.10
2018-07-24T04:28:15.434Z,20.10
2018-07-24T04:38:10.043Z,20.10
2018-07-24T04:40:38.840Z,20.20
2018-07-24T04:43:07.897Z,20.10
2018-07-24T04:45:36.705Z,20.20
2018-07-24T04:48:05.843Z,20.20
2018-07-24T04:53:03.552Z,20.20
2018-07-24T04:55:32.456Z,20.30
2018-07-24T04:58:01.713Z,20.30
2018-07-24T05:00:30.462Z,20.30
2018-07-24T05:02:59.478Z,20.40
2018-07-24T05:05:28.437Z,20.40
2018-07-24T05:07:57.280Z,20.40
2018-07-24T05:10:26.339Z,20.40
2018-07-24T05:12:55.273Z,20.50
2018-07-24T05:15:24.365Z,20.50
2018-07-24T05:20:21.878Z,20.60
2018-07-24T05:22:51.017Z,20.70
2018-07-24T05:25:20.181Z,20.70
2018-07-24T05:27:49.309Z,20.80
2018-07-24T05:30:18.601Z,20.80
2018-07-24T05:32:47.736Z,20.90
2018-07-24T05:40:13.531Z,21.00
2018-07-24T05:42:42.381Z,21.10
2018-07-24T05:45:11.237Z,21.10
2018-07-24T05:47:40.317Z,21.10
2018-07-24T05:50:09.277Z,21.10
2018-07-24T05:52:38.613Z,21.10
2018-07-24T05:55:07.439Z,21.10
2018-07-24T05:57:36.272Z,21.20
2018-07-24T06:00:05.781Z,21.20
2018-07-24T06:02:34.661Z,21.20
2018-07-24T06:05:03.464Z,21.30
2018-07-24T06:07:32.240Z,21.30
2018-07-24T06:10:00.989Z,21.30
2018-07-24T06:12:29.795Z,21.30
2018-07-24T06:14:58.628Z,21.30
2018-07-24T06:17:27.479Z,21.40
2018-07-24T06:19:56.261Z,21.40
2018-07-24T06:22:25.097Z,21.50
2018-07-24T06:24:54.077Z,21.60
2018-07-24T06:27:22.918Z,21.60
2018-07-24T06:29:51.713Z,21.60
2018-07-24T06:34:49.476Z,21.70
2018-07-24T06:37:18.284Z,21.60
2018-07-24T06:42:15.665Z,21.80
2018-07-24T06:44:44.450Z,21.70
2018-07-24T06:49:41.849Z,21.80
2018-07-24T06:52:10.680Z,21.80
2018-07-24T06:54:39.512Z,21.90
2018-07-24T06:57:08.577Z,21.90
2018-07-24T06:59:37.393Z,22.00
2018-07-24T07:02:06.522Z,22.10
2018-07-24T07:04:35.362Z,22.10
2018-07-24T07:09:33.257Z,22.20
2018-07-24T07:12:02.075Z,22.20
2018-07-24T07:14:30.890Z,22.30
2018-07-24T07:16:59.693Z,22.40
2018-07-24T07:19:28.509Z,22.50
2018-07-24T07:21:57.329Z,22.50
2018-07-24T07:24:26.153Z,22.60
2018-07-24T07:26:54.971Z,22.60
2018-07-24T07:29:23.769Z,22.60
2018-07-24T07:34:21.317Z,22.70
2018-07-24T07:36:50.129Z,22.70
2018-07-24T07:41:47.904Z,22.70
2018-07-24T07:46:45.289Z,22.80
2018-07-24T07:49:14.061Z,22.80
2018-07-24T07:51:42.941Z,22.80
2018-07-24T07:54:11.728Z,22.90
2018-07-24T07:56:40.554Z,22.90
2018-07-24T08:01:38.065Z,23.00
2018-07-24T08:04:06.976Z,23.00
2018-07-24T08:06:36.073Z,23.00
2018-07-24T08:09:07.457Z,23.10
2018-07-24T08:14:04.778Z,23.20
2018-07-24T08:16:33.509Z,23.20
2018-07-24T08:23:59.333Z,23.40
2018-07-24T08:26:28.317Z,23.50
2018-07-24T08:28:57.337Z,23.50
2018-07-24T08:31:26.123Z,23.50
2018-07-24T08:33:55.432Z,23.60
2018-07-24T08:36:24.217Z,23.50
2018-07-24T08:38:53.021Z,23.60
2018-07-24T08:46:18.793Z,23.90
2018-07-24T08:48:47.826Z,23.90
2018-07-24T08:53:45.703Z,23.90
2018-07-24T08:56:14.113Z,24.00
2018-07-24T08:58:43.269Z,24.00
2018-07-24T09:01:12.127Z,24.00
2018-07-24T09:06:09.598Z,24.30
2018-07-24T09:11:06.966Z,24.40
2018-07-24T09:13:35.780Z,24.50
2018-07-24T09:16:04.571Z,24.60
2018-07-24T09:18:33.429Z,24.60
2018-07-24T09:21:02.438Z,24.70
2018-07-24T09:23:31.213Z,24.70
2018-07-24T09:26:00.213Z,24.80
2018-07-24T09:28:28.989Z,25.00
2018-07-24T09:30:57.993Z,25.10
2018-07-24T09:33:26.793Z,25.20
2018-07-24T09:35:55.649Z,25.30
2018-07-24T09:38:24.457Z,25.50
2018-07-24T09:43:21.850Z,25.60
2018-07-24T09:45:50.725Z,25.80
2018-07-24T09:48:19.508Z,25.80
2018-07-24T09:53:17.017Z,26.00
2018-07-24T10:00:48.706Z,26.30
2018-07-24T10:08:14.506Z,26.70
2018-07-24T10:10:43.385Z,26.90
2018-07-24T10:13:12.426Z,27.00
2018-07-24T10:15:41.189Z,27.20
2018-07-24T10:18:10.402Z,27.30
2018-07-24T10:20:39.364Z,27.50
2018-07-24T10:23:08.137Z,27.50
2018-07-24T10:25:36.980Z,27.70
2018-07-24T10:30:34.569Z,27.60
2018-07-24T10:33:03.442Z,27.70
2018-07-24T10:35:32.537Z,27.90
2018-07-24T10:38:01.376Z,28.10
2018-07-24T10:40:30.244Z,28.40
2018-07-24T10:42:59.121Z,28.60
2018-07-24T10:47:56.717Z,28.90
2018-07-24T10:50:25.622Z,29.10
2018-07-24T10:52:54.456Z,29.30
2018-07-24T10:55:23.227Z,29.50
2018-07-24T10:57:52.544Z,29.50
2018-07-24T11:00:21.406Z,29.70
2018-07-24T11:02:50.325Z,30.00
2018-07-24T11:05:19.291Z,30.20
2018-07-24T11:07:48.221Z,30.30
2018-07-24T11:10:17.022Z,30.40
2018-07-24T11:12:45.789Z,30.40
2018-07-24T11:17:43.297Z,30.70
2018-07-24T11:22:40.754Z,30.90
2018-07-24T11:25:09.441Z,30.90
2018-07-24T11:27:38.363Z,31.00
2018-07-24T11:30:07.421Z,31.10
2018-07-24T11:32:36.345Z,30.90
2018-07-24T11:35:05.209Z,31.00
2018-07-24T11:37:33.997Z,31.20
2018-07-24T11:40:03.143Z,31.60
2018-07-24T11:42:32.213Z,31.60
2018-07-24T11:45:00.982Z,31.60
2018-07-24T11:47:29.765Z,31.80
2018-07-24T11:49:58.557Z,32.00
2018-07-24T11:52:27.362Z,32.20
2018-07-24T11:54:56.313Z,32.00
2018-07-24T11:57:25.157Z,32.00
2018-07-24T11:59:54.205Z,32.20
2018-07-24T12:02:23.029Z,32.30
2018-07-24T12:07:20.470Z,32.40
2018-07-24T12:09:49.308Z,32.50
2018-07-24T12:12:18.110Z,32.50
2018-07-24T12:14:46.963Z,32.60
2018-07-24T12:17:15.706Z,32.80
2018-07-24T12:19:44.082Z,32.70
2018-07-24T12:22:12.861Z,33.20
2018-07-24T12:24:41.714Z,33.20
2018-07-24T12:27:10.924Z,33.30
2018-07-24T12:29:39.574Z,33.20
2018-07-24T12:34:37.213Z,33.60
2018-07-24T12:37:06.127Z,34.00
2018-07-24T12:39:34.927Z,34.10
2018-07-24T12:42:03.772Z,34.20
2018-07-24T12:44:32.626Z,34.10
2018-07-24T12:47:01.647Z,34.10
2018-07-24T12:49:30.597Z,34.00
2018-07-24T12:51:59.392Z,34.30
2018-07-24T12:54:28.345Z,34.50
2018-07-24T12:56:57.137Z,34.80
2018-07-24T12:59:25.949Z,34.90
2018-07-24T13:01:54.938Z,34.80
2018-07-24T13:04:23.850Z,34.80
2018-07-24T13:06:52.909Z,34.80
2018-07-24T13:09:21.694Z,34.90
2018-07-24T13:11:50.742Z,35.20
2018-07-24T13:14:19.567Z,35.40
2018-07-24T13:16:48.634Z,35.10
2018-07-24T13:19:18.105Z,35.20
2018-07-24T13:21:47.233Z,35.40
2018-07-24T13:26:45.009Z,35.90
2018-07-24T13:29:14.118Z,36.10
2018-07-24T13:31:43.071Z,35.80
2018-07-24T13:34:12.304Z,35.80
2018-07-24T13:36:41.091Z,35.90
2018-07-24T13:39:11.153Z,36.00
2018-07-24T13:41:40.278Z,36.30
2018-07-24T13:44:09.543Z,36.40
2018-07-24T13:46:38.437Z,36.20
2018-07-24T13:49:07.531Z,35.90
2018-07-24T13:51:36.560Z,35.40
2018-07-24T13:54:05.448Z,35.80
2018-07-24T13:56:34.295Z,36.20
2018-07-24T13:59:03.189Z,36.60
2018-07-24T14:01:31.929Z,36.70
2018-07-24T14:04:00.930Z,36.50
2018-07-24T14:06:29.776Z,36.60
2018-07-24T14:08:58.889Z,36.20
2018-07-24T14:11:27.827Z,36.40
2018-07-24T14:16:25.293Z,36.60
2018-07-24T14:18:54.196Z,36.70
2018-07-24T14:21:23.071Z,36.70
2018-07-24T14:23:52.317Z,36.60
2018-07-24T14:26:21.515Z,36.30
2018-07-24T14:28:50.387Z,35.80
2018-07-24T14:31:19.297Z,35.30
2018-07-24T14:33:48.090Z,35.00
2018-07-24T14:36:16.972Z,34.80
2018-07-24T14:38:45.781Z,34.70
2018-07-24T14:41:14.664Z,34.60
2018-07-24T14:43:43.458Z,34.50
2018-07-24T14:46:12.295Z,34.00
2018-07-24T14:48:41.135Z,33.90
2018-07-24T14:51:10.062Z,34.60
2018-07-24T14:53:38.874Z,34.70
2018-07-24T14:56:07.685Z,34.80
2018-07-24T14:58:36.580Z,34.80
2018-07-24T15:01:05.375Z,34.90
2018-07-24T15:03:34.280Z,34.50
2018-07-24T15:06:03.306Z,34.60
2018-07-24T15:08:32.202Z,34.80
2018-07-24T15:11:01.295Z,35.00
2018-07-24T15:13:30.165Z,35.40
2018-07-24T15:15:59.003Z,35.00
2018-07-24T15:18:27.785Z,34.80
2018-07-24T15:20:56.668Z,34.30
2018-07-24T15:23:25.609Z,34.40
2018-07-24T15:25:54.457Z,34.50
2018-07-24T15:28:23.321Z,34.90
2018-07-24T15:30:52.161Z,34.80
2018-07-24T15:33:20.946Z,35.00
2018-07-24T15:35:49.726Z,35.20
2018-07-24T15:38:18.574Z,35.30
2018-07-24T15:40:47.291Z,35.00
2018-07-24T15:43:16.208Z,35.00
2018-07-24T15:45:45.307Z,34.80
2018-07-24T15:48:14.078Z,34.70
2018-07-24T15:53:11.445Z,34.90
2018-07-24T15:55:40.213Z,34.90
2018-07-24T15:58:09.062Z,34.70
2018-07-24T16:00:37.866Z,34.90
2018-07-24T16:03:06.829Z,35.00
2018-07-24T16:05:35.996Z,34.70
2018-07-24T16:08:05.005Z,34.80
2018-07-24T16:10:33.809Z,35.10
2018-07-24T16:20:28.222Z,35.10
2018-07-24T16:25:25.524Z,34.60
2018-07-24T16:27:54.399Z,34.60
2018-07-24T16:30:23.211Z,34.70
2018-07-24T16:32:52.369Z,34.60
2018-07-24T16:35:21.201Z,34.70
2018-07-24T16:37:50.101Z,34.80
2018-07-24T16:40:18.898Z,34.60
2018-07-24T16:42:47.894Z,34.60
2018-07-24T16:45:16.741Z,34.60
2018-07-24T16:47:45.585Z,34.50
2018-07-24T16:50:14.491Z,34.50
2018-07-24T16:52:43.261Z,34.70
2018-07-24T16:55:15.272Z,34.80
2018-07-24T16:57:44.201Z,34.80
2018-07-24T17:00:13.344Z,35.20
2018-07-24T17:02:42.246Z,35.20
2018-07-24T17:05:11.025Z,34.80
2018-07-24T17:07:40.117Z,34.60
2018-07-24T17:10:09.051Z,34.60
2018-07-24T17:12:38.039Z,34.20
2018-07-24T17:15:07.324Z,34.30
2018-07-24T17:17:36.096Z,34.40
2018-07-24T17:20:04.957Z,34.80
2018-07-24T17:22:33.728Z,34.80
2018-07-24T17:25:02.560Z,34.80
2018-07-24T17:27:31.619Z,34.80
2018-07-24T17:30:00.476Z,35.10
2018-07-24T17:32:29.268Z,34.60
2018-07-24T17:34:58.033Z,34.60
2018-07-24T17:37:26.789Z,34.40
2018-07-24T17:39:55.565Z,34.60
2018-07-24T17:42:24.352Z,34.40
2018-07-24T17:44:53.208Z,34.40
2018-07-24T17:47:22.053Z,34.10
2018-07-24T17:49:50.885Z,34.20
2018-07-24T17:52:19.781Z,34.10
2018-07-24T17:54:48.692Z,34.20
2018-07-24T17:57:17.577Z,33.90
2018-07-24T17:59:46.526Z,34.10
2018-07-24T18:02:15.574Z,34.10
2018-07-24T18:04:44.432Z,34.10
2018-07-24T18:07:13.293Z,33.90
2018-07-24T18:09:42.222Z,33.90
2018-07-24T18:12:11.072Z,33.90
2018-07-24T18:14:40.012Z,33.80
2018-07-24T18:17:09.805Z,33.70
2018-07-24T18:19:38.733Z,33.80
2018-07-24T18:22:07.501Z,33.60
2018-07-24T18:24:36.393Z,33.50
2018-07-24T18:27:05.311Z,33.30
2018-07-24T18:29:34.045Z,33.30
2018-07-24T18:32:03.042Z,33.90
2018-07-24T18:34:31.845Z,34.80
2018-07-24T18:37:01.137Z,35.20
2018-07-24T18:39:29.982Z,35.10
2018-07-24T18:41:58.886Z,35.30
2018-07-24T18:44:27.718Z,35.10
2018-07-24T18:46:56.715Z,34.80
2018-07-24T18:49:25.457Z,34.50
2018-07-24T18:51:54.373Z,33.70
2018-07-24T18:54:23.231Z,32.70
2018-07-24T18:56:53.025Z,32.10
2018-07-24T18:59:21.785Z,31.80
2018-07-24T19:01:50.608Z,31.60
2018-07-24T19:04:19.377Z,31.30
2018-07-24T19:06:48.193Z,31.00
2018-07-24T19:09:17.036Z,30.80
2018-07-24T19:11:46.077Z,30.50
2018-07-24T19:14:14.923Z,30.40
2018-07-24T19:16:43.829Z,30.20
2018-07-24T19:19:12.611Z,30.00
2018-07-24T19:21:41.457Z,29.80
2018-07-24T19:24:10.242Z,29.80
2018-07-24T19:26:39.127Z,29.60
2018-07-24T19:29:07.890Z,29.50
2018-07-24T19:31:36.937Z,29.40
2018-07-24T19:34:05.701Z,29.20
2018-07-24T19:36:34.501Z,29.00
2018-07-24T19:39:03.343Z,28.90
2018-07-24T19:41:32.100Z,28.80
2018-07-24T19:44:00.998Z,28.60
2018-07-24T19:46:29.785Z,28.60
2018-07-24T19:48:58.560Z,28.50
2018-07-24T19:51:27.366Z,28.40
2018-07-24T19:53:56.221Z,28.30
2018-07-24T19:56:25.083Z,28.20
2018-07-24T19:58:53.945Z,28.10
2018-07-24T20:01:22.729Z,28.00
2018-07-24T20:03:51.629Z,27.90
2018-07-24T20:06:20.433Z,27.80
2018-07-24T20:08:49.301Z,27.70
2018-07-24T20:16:15.205Z,27.50
2018-07-24T20:18:44.093Z,27.50
2018-07-24T20:21:12.882Z,27.40
2018-07-24T20:23:41.718Z,27.30
2018-07-24T20:26:10.466Z,27.20
2018-07-24T20:28:40.834Z,27.20
2018-07-24T20:31:09.620Z,27.10
2018-07-24T20:33:38.500Z,27.00
2018-07-24T20:36:07.396Z,27.00
2018-07-24T20:38:36.165Z,26.90
2018-07-24T20:41:04.970Z,26.80
2018-07-24T20:43:33.756Z,26.80
2018-07-24T20:46:02.561Z,26.70
2018-07-24T20:48:31.477Z,26.60
2018-07-24T20:51:00.269Z,26.60
2018-07-24T20:53:29.045Z,26.50
2018-07-24T20:55:57.809Z,26.40
2018-07-24T20:58:26.649Z,26.40
2018-07-24T21:00:55.438Z,26.40
2018-07-24T21:03:24.349Z,26.30
2018-07-24T21:05:53.104Z,26.30
2018-07-24T21:08:21.825Z,26.30
2018-07-24T21:10:50.600Z,26.20
2018-07-24T21:13:19.609Z,26.30
2018-07-24T21:15:48.522Z,26.20
2018-07-24T21:18:17.328Z,26.10
2018-07-24T21:20:46.180Z,26.00
2018-07-24T21:23:15.085Z,26.00
2018-07-24T21:25:43.961Z,26.00
2018-07-24T21:28:12.817Z,26.10
2018-07-24T21:30:41.653Z,25.90
2018-07-24T21:33:10.441Z,25.90
2018-07-24T21:35:39.213Z,25.80
2018-07-24T21:38:07.980Z,25.80
2018-07-24T21:40:36.754Z,25.80
2018-07-24T21:43:05.573Z,25.90
2018-07-24T21:45:34.426Z,25.90
2018-07-24T21:48:03.208Z,25.80
2018-07-24T21:50:32.021Z,25.70
2018-07-24T21:53:00.957Z,25.70
2018-07-24T21:55:29.881Z,25.60
2018-07-24T21:57:58.669Z,25.60
2018-07-24T22:00:31.910Z,25.60
2018-07-24T22:03:00.681Z,25.60
2018-07-24T22:05:29.458Z,25.60
2018-07-24T22:07:58.274Z,25.60
2018-07-24T22:10:27.063Z,25.60
2018-07-24T22:12:55.904Z,25.60
2018-07-24T22:15:25.320Z,25.50
2018-07-24T22:17:54.524Z,25.50
2018-07-24T22:20:23.582Z,25.50
2018-07-24T22:22:52.730Z,25.50
2018-07-24T22:25:21.504Z,25.40
2018-07-24T22:30:18.887Z,25.30
2018-07-24T22:32:47.705Z,25.30
2018-07-24T22:35:16.474Z,25.20
2018-07-24T22:37:45.392Z,25.20
2018-07-24T22:40:14.373Z,25.20
2018-07-24T22:42:43.326Z,25.20
2018-07-24T22:47:40.569Z,24.90
2018-07-24T22:50:10.556Z,24.80
2018-07-24T22:52:39.473Z,24.70
2018-07-24T22:55:08.250Z,24.70
2018-07-24T22:57:37.094Z,24.60
2018-07-24T23:02:34.473Z,24.60
2018-07-24T23:05:03.308Z,24.50
2018-07-24T23:07:32.082Z,24.50
2018-07-24T23:10:00.854Z,24.50
2018-07-24T23:12:29.624Z,24.50
2018-07-24T23:17:26.983Z,24.40
2018-07-24T23:19:55.789Z,24.30
2018-07-24T23:22:24.646Z,24.30
2018-07-24T23:24:53.394Z,24.30
2018-07-24T23:27:22.470Z,24.20
2018-07-24T23:29:51.273Z,24.20
2018-07-24T23:32:20.282Z,24.10
2018-07-24T23:34:49.056Z,24.10
2018-07-24T23:37:17.841Z,24.10
2018-07-24T23:39:46.625Z,24.10
2018-07-24T23:42:15.393Z,24.10
2018-07-24T23:44:44.424Z,24.00
2018-07-24T23:47:13.239Z,24.00
2018-07-24T23:49:42.030Z,24.00
2018-07-24T23:52:10.787Z,23.90
2018-07-24T23:54:39.561Z,23.90
2018-07-24T23:57:08.617Z,23.90
2018-07-24T23:59:37.523Z,23.80
